createdAt,value
2022-12-24T00:01:09.081Z,11.00
2022-12-24T00:03:38.196Z,11.20
2022-12-24T00:06:17.675Z,11.30
2022-12-24T00:08:44.465Z,11.20
2022-12-24T00:11:11.372Z,11.10
2022-12-24T00:13:38.378Z,11.10
2022-12-24T00:16:05.927Z,11.30
2022-12-24T00:18:32.808Z,11.30
2022-12-24T00:20:59.841Z,11.50
2022-12-24T00:23:29.294Z,11.20
2022-12-24T00:25:56.493Z,11.20
2022-12-24T00:28:23.448Z,11.50
2022-12-24T00:30:50.339Z,11.20
2022-12-24T00:33:24.227Z,11.00
2022-12-24T00:35:53.114Z,11.10
2022-12-24T00:38:19.925Z,11.30
2022-12-24T00:40:47.046Z,11.00
2022-12-24T00:43:14.083Z,11.50
2022-12-24T00:45:40.989Z,11.50
2022-12-24T00:48:07.788Z,11.10
2022-12-24T00:50:34.819Z,11.50
2022-12-24T00:53:02.060Z,11.00
2022-12-24T00:55:28.912Z,11.40
2022-12-24T00:57:56.212Z,11.00
2022-12-24T01:00:23.458Z,11.00
2022-12-24T01:02:50.734Z,11.20
2022-12-24T01:05:20.675Z,11.00
2022-12-24T01:07:48.151Z,11.10
2022-12-24T01:10:20.192Z,11.00
2022-12-24T01:12:47.982Z,11.40
2022-12-24T01:15:16.036Z,11.40
2022-12-24T01:17:42.997Z,11.50
2022-12-24T01:20:14.139Z,11.10
2022-12-24T01:22:41.415Z,11.50
2022-12-24T01:25:08.990Z,11.30
2022-12-24T01:27:35.995Z,11.30
2022-12-24T01:30:04.985Z,11.40
2022-12-24T01:32:32.024Z,11.20
2022-12-24T01:34:59.980Z,11.20
2022-12-24T01:37:26.984Z,11.30
2022-12-24T01:40:13.963Z,11.30
2022-12-24T01:43:04.985Z,11.50
2022-12-24T01:45:47.108Z,11.20
2022-12-24T01:48:43.967Z,11.00
2022-12-24T01:51:40.148Z,11.00
2022-12-24T01:54:23.403Z,11.20
2022-12-24T01:57:00.264Z,11.30
2022-12-24T01:59:28.257Z,10.90
2022-12-24T02:01:55.894Z,11.20
2022-12-24T02:04:33.777Z,11.00
2022-12-24T02:07:01.441Z,11.00
2022-12-24T02:09:29.434Z,10.90
2022-12-24T02:11:57.396Z,11.10
2022-12-24T02:14:27.217Z,11.10
2022-12-24T02:17:20.362Z,10.90
2022-12-24T02:19:53.655Z,11.10
2022-12-24T02:22:39.569Z,11.10
2022-12-24T02:25:27.315Z,11.20
2022-12-24T02:28:30.982Z,10.80
2022-12-24T02:31:39.291Z,10.70
2022-12-24T02:34:19.841Z,10.80
2022-12-24T02:37:02.300Z,11.00
2022-12-24T02:39:43.382Z,10.80
2022-12-24T02:42:19.064Z,10.70
2022-12-24T02:44:55.912Z,10.60
2022-12-24T02:47:26.609Z,10.80
2022-12-24T02:49:54.048Z,10.60
2022-12-24T02:52:45.965Z,10.60
2022-12-24T02:55:13.110Z,11.00
2022-12-24T02:57:57.171Z,10.70
2022-12-24T03:00:25.193Z,10.70
2022-12-24T03:03:19.911Z,11.00
2022-12-24T03:06:08.209Z,11.00
2022-12-24T03:08:35.868Z,11.10
2022-12-24T03:11:08.400Z,11.20
2022-12-24T03:13:35.644Z,10.70
2022-12-24T03:16:07.130Z,10.80
2022-12-24T03:18:34.143Z,10.70
2022-12-24T03:21:07.366Z,10.70
2022-12-24T03:23:35.645Z,10.90
2022-12-24T03:26:09.084Z,10.80
2022-12-24T03:28:40.673Z,10.90
2022-12-24T03:31:09.234Z,11.00
2022-12-24T03:33:37.094Z,10.70
2022-12-24T03:36:06.139Z,10.90
2022-12-24T03:38:44.890Z,11.00
2022-12-24T03:41:12.062Z,10.80
2022-12-24T03:43:38.850Z,10.70
2022-12-24T03:46:08.257Z,10.80
2022-12-24T03:48:36.149Z,10.90
2022-12-24T03:51:04.015Z,10.70
2022-12-24T03:53:31.538Z,10.80
2022-12-24T03:55:58.861Z,11.00
2022-12-24T03:58:25.929Z,10.80
2022-12-24T04:00:54.053Z,10.90
2022-12-24T04:03:21.495Z,10.60
2022-12-24T04:05:48.449Z,10.60
2022-12-24T04:08:15.484Z,10.70
2022-12-24T04:10:42.716Z,10.60
2022-12-24T04:13:09.731Z,10.30
2022-12-24T04:15:36.579Z,10.50
2022-12-24T04:18:03.826Z,10.40
2022-12-24T04:20:30.697Z,10.20
2022-12-24T04:22:57.368Z,10.40
2022-12-24T04:25:24.631Z,10.10
2022-12-24T04:27:51.772Z,10.20
2022-12-24T04:30:19.021Z,10.20
2022-12-24T04:32:46.105Z,10.20
2022-12-24T04:35:12.835Z,9.90
2022-12-24T04:37:39.610Z,10.20
2022-12-24T04:40:07.460Z,10.10
2022-12-24T04:42:34.235Z,10.10
2022-12-24T04:45:01.171Z,9.90
2022-12-24T04:47:28.050Z,9.80
2022-12-24T04:49:54.987Z,9.90
2022-12-24T04:52:22.000Z,9.90
2022-12-24T04:54:48.934Z,9.80
2022-12-24T04:57:15.723Z,9.80
2022-12-24T04:59:42.544Z,9.70
2022-12-24T05:02:09.531Z,9.80
2022-12-24T05:04:36.411Z,9.80
2022-12-24T05:07:04.422Z,9.60
2022-12-24T05:09:31.350Z,9.80
2022-12-24T05:11:58.323Z,9.50
2022-12-24T05:14:25.258Z,9.70
2022-12-24T05:16:52.042Z,9.90
2022-12-24T05:19:18.896Z,9.70
2022-12-24T05:22:05.581Z,9.60
2022-12-24T05:24:50.959Z,9.80
2022-12-24T05:27:17.980Z,9.80
2022-12-24T05:29:44.774Z,9.60
2022-12-24T05:32:11.517Z,9.60
2022-12-24T05:34:38.474Z,9.50
2022-12-24T05:37:05.249Z,9.80
2022-12-24T05:39:31.989Z,9.80
2022-12-24T05:41:58.759Z,9.80
2022-12-24T05:44:26.214Z,9.70
2022-12-24T05:46:52.955Z,9.90
2022-12-24T05:49:19.854Z,9.80
2022-12-24T05:51:47.003Z,9.70
2022-12-24T05:54:13.790Z,9.70
2022-12-24T05:56:40.551Z,9.80
2022-12-24T05:59:07.400Z,9.60
2022-12-24T06:01:34.294Z,9.40
2022-12-24T06:04:01.174Z,9.40
2022-12-24T06:06:29.284Z,9.50
2022-12-24T06:08:56.854Z,9.50
2022-12-24T06:11:27.946Z,9.50
2022-12-24T06:13:54.965Z,9.50
2022-12-24T06:16:23.070Z,9.40
2022-12-24T06:18:50.512Z,9.40
2022-12-24T06:21:18.549Z,9.50
2022-12-24T06:23:46.126Z,9.50
2022-12-24T06:26:15.961Z,9.50
2022-12-24T06:29:01.169Z,9.30
2022-12-24T06:31:27.927Z,9.40
2022-12-24T06:33:55.350Z,9.40
2022-12-24T06:36:26.660Z,9.50
2022-12-24T06:38:55.014Z,9.40
2022-12-24T06:41:22.790Z,9.30
2022-12-24T06:43:51.969Z,9.50
2022-12-24T06:46:20.126Z,9.50
2022-12-24T06:48:47.760Z,9.50
2022-12-24T06:51:19.513Z,9.40
2022-12-24T06:53:47.144Z,9.30
2022-12-24T06:56:14.853Z,9.50
2022-12-24T06:58:42.162Z,9.40
2022-12-24T07:01:11.721Z,9.40
2022-12-24T07:03:40.367Z,9.20
2022-12-24T07:06:07.869Z,9.00
2022-12-24T07:08:36.519Z,9.40
2022-12-24T07:11:04.056Z,9.40
2022-12-24T07:13:33.105Z,9.40
2022-12-24T07:16:04.002Z,9.30
2022-12-24T07:18:32.064Z,9.30
2022-12-24T07:20:58.821Z,9.10
2022-12-24T07:23:25.940Z,9.20
2022-12-24T07:25:52.743Z,9.40
2022-12-24T07:28:25.473Z,9.40
2022-12-24T07:30:55.265Z,9.40
2022-12-24T07:33:24.097Z,9.30
2022-12-24T07:36:04.481Z,9.20
2022-12-24T07:38:32.279Z,9.40
2022-12-24T07:40:59.870Z,9.40
2022-12-24T07:43:27.915Z,9.40
2022-12-24T07:45:57.008Z,9.50
2022-12-24T07:48:24.976Z,9.40
2022-12-24T07:50:55.712Z,9.60
2022-12-24T07:53:28.044Z,9.40
2022-12-24T07:55:55.567Z,9.40
2022-12-24T07:58:22.763Z,9.10
2022-12-24T08:00:49.723Z,9.40
2022-12-24T08:03:18.850Z,9.50
2022-12-24T08:05:46.588Z,9.20
2022-12-24T08:08:13.753Z,9.30
2022-12-24T08:10:41.890Z,9.50
2022-12-24T08:13:11.943Z,9.40
2022-12-24T08:15:38.694Z,9.20
2022-12-24T08:18:05.770Z,9.10
2022-12-24T08:20:32.588Z,9.40
2022-12-24T08:22:59.414Z,9.30
2022-12-24T08:25:26.319Z,9.50
2022-12-24T08:27:53.119Z,9.00
2022-12-24T08:30:21.534Z,9.30
2022-12-24T08:32:48.739Z,9.20
2022-12-24T08:35:15.973Z,9.50
2022-12-24T08:37:43.158Z,9.20
2022-12-24T08:40:10.549Z,9.30
2022-12-24T08:42:37.662Z,9.30
2022-12-24T08:45:05.251Z,9.00
2022-12-24T08:47:32.049Z,8.90
2022-12-24T08:49:58.816Z,9.20
2022-12-24T08:52:25.887Z,9.20
2022-12-24T08:54:53.281Z,9.20
2022-12-24T08:57:20.626Z,9.10
2022-12-24T08:59:47.415Z,9.20
2022-12-24T09:02:14.740Z,9.00
2022-12-24T09:04:42.017Z,9.40
2022-12-24T09:07:09.640Z,9.40
2022-12-24T09:09:38.226Z,9.30
2022-12-24T09:12:06.793Z,9.30
2022-12-24T09:14:34.004Z,9.30
2022-12-24T09:17:00.939Z,9.50
2022-12-24T09:19:28.651Z,9.50
2022-12-24T09:21:55.664Z,9.50
2022-12-24T09:24:22.906Z,9.50
2022-12-24T09:26:57.381Z,9.40
2022-12-24T09:29:24.925Z,9.40
2022-12-24T09:31:52.185Z,9.40
2022-12-24T09:34:20.932Z,9.30
2022-12-24T09:36:51.970Z,9.40
2022-12-24T09:39:18.793Z,9.30
2022-12-24T09:41:51.348Z,9.50
2022-12-24T09:44:47.465Z,9.40
2022-12-24T09:47:29.084Z,9.30
2022-12-24T09:50:01.765Z,9.30
2022-12-24T09:52:48.449Z,9.40
2022-12-24T09:55:43.296Z,9.50
2022-12-24T09:58:23.066Z,9.40
2022-12-24T10:00:53.404Z,9.40
2022-12-24T10:03:20.617Z,9.30
2022-12-24T10:06:10.963Z,9.40
2022-12-24T10:08:47.066Z,9.30
2022-12-24T10:11:25.104Z,9.40
2022-12-24T10:14:17.543Z,9.30
2022-12-24T10:16:50.191Z,9.50
2022-12-24T10:19:40.207Z,9.20
2022-12-24T10:22:43.347Z,9.70
2022-12-24T10:25:47.230Z,9.70
2022-12-24T10:28:46.193Z,9.80
2022-12-24T10:31:14.664Z,9.70
2022-12-24T10:33:45.175Z,9.50
2022-12-24T10:36:17.216Z,9.80
2022-12-24T10:38:44.944Z,9.70
2022-12-24T10:41:15.437Z,9.80
2022-12-24T10:43:43.967Z,9.70
2022-12-24T10:46:22.197Z,9.70
2022-12-24T10:48:51.996Z,9.80
2022-12-24T10:51:27.189Z,9.70
2022-12-24T10:54:08.582Z,9.90
2022-12-24T10:56:43.119Z,9.90
2022-12-24T10:59:30.827Z,9.80
2022-12-24T11:02:00.081Z,9.90
2022-12-24T11:04:29.829Z,9.80
2022-12-24T11:07:05.374Z,9.60
2022-12-24T11:09:33.148Z,9.70
2022-12-24T11:12:08.613Z,9.80
2022-12-24T11:14:38.640Z,10.00
2022-12-24T11:17:06.391Z,10.00
2022-12-24T11:19:49.323Z,10.20
2022-12-24T11:22:28.885Z,10.20
2022-12-24T11:25:18.553Z,10.10
2022-12-24T11:27:50.870Z,10.20
2022-12-24T11:30:31.377Z,10.20
2022-12-24T11:33:01.216Z,10.10
2022-12-24T11:35:30.337Z,10.20
2022-12-24T11:38:00.135Z,10.10
2022-12-24T11:40:37.366Z,10.20
2022-12-24T11:43:14.535Z,10.00
2022-12-24T11:45:55.509Z,10.20
2022-12-24T11:48:31.715Z,10.00
2022-12-24T11:51:00.200Z,10.20
2022-12-24T11:54:01.033Z,10.00
2022-12-24T11:56:48.811Z,9.90
2022-12-24T11:59:39.073Z,9.70
2022-12-24T12:02:18.261Z,9.80
2022-12-24T12:04:49.449Z,9.70
2022-12-24T12:07:22.571Z,10.00
2022-12-24T12:10:15.241Z,9.60
2022-12-24T12:12:46.543Z,9.70
2022-12-24T12:15:22.092Z,9.70
2022-12-24T12:17:55.183Z,9.80
2022-12-24T12:20:48.519Z,9.60
2022-12-24T12:23:28.457Z,9.60
2022-12-24T12:28:53.904Z,9.70
2022-12-24T12:31:26.948Z,9.70
2022-12-24T12:34:09.453Z,9.40
2022-12-24T12:36:57.543Z,9.80
2022-12-24T12:39:24.826Z,9.60
2022-12-24T12:42:12.071Z,9.50
2022-12-24T12:44:53.946Z,9.60
2022-12-24T12:48:12.826Z,9.70
2022-12-24T12:51:06.617Z,9.80
2022-12-24T12:54:11.944Z,9.50
2022-12-24T12:56:41.313Z,9.70
2022-12-24T12:59:13.112Z,9.70
2022-12-24T13:02:05.400Z,9.80
2022-12-24T13:04:57.655Z,9.70
2022-12-24T13:07:29.338Z,9.80
2022-12-24T13:10:33.650Z,9.70
2022-12-24T13:13:20.422Z,9.80
2022-12-24T13:16:16.926Z,9.70
2022-12-24T13:19:06.607Z,9.80
2022-12-24T13:21:33.843Z,9.70
2022-12-24T13:24:25.951Z,9.80
2022-12-24T13:27:17.869Z,9.70
2022-12-24T13:30:07.230Z,9.80
2022-12-24T13:32:54.212Z,9.70
2022-12-24T13:35:21.204Z,10.00
2022-12-24T13:37:49.118Z,9.80
2022-12-24T13:40:26.045Z,9.70
2022-12-24T13:42:59.112Z,9.70
2022-12-24T13:45:29.161Z,10.10
2022-12-24T13:47:57.790Z,10.00
2022-12-24T13:50:50.734Z,9.80
2022-12-24T13:53:26.112Z,9.80
2022-12-24T13:55:55.371Z,9.70
2022-12-24T13:58:25.521Z,9.80
2022-12-24T14:01:06.548Z,9.60
2022-12-24T14:03:44.859Z,9.80
2022-12-24T14:06:25.169Z,9.70
2022-12-24T14:08:55.749Z,9.60
2022-12-24T14:11:25.552Z,9.90
2022-12-24T14:14:14.273Z,9.70
2022-12-24T14:16:51.881Z,9.90
2022-12-24T14:19:26.054Z,9.90
2022-12-24T14:22:32.207Z,9.90
2022-12-24T14:25:04.165Z,10.30
2022-12-24T14:27:53.391Z,10.90
2022-12-24T14:30:29.033Z,10.80
2022-12-24T14:32:56.032Z,10.50
2022-12-24T14:35:29.604Z,10.50
2022-12-24T14:38:14.351Z,10.50
2022-12-24T14:41:15.180Z,10.30
2022-12-24T14:44:05.228Z,10.10
2022-12-24T14:46:48.360Z,10.20
2022-12-24T14:50:05.584Z,9.80
2022-12-24T14:55:44.307Z,9.80
2022-12-24T14:58:18.729Z,9.70
2022-12-24T15:00:49.068Z,9.80
2022-12-24T15:03:22.959Z,9.70
2022-12-24T15:06:00.464Z,9.80
2022-12-24T15:08:36.681Z,9.40
2022-12-24T15:11:07.215Z,9.50
2022-12-24T15:13:44.109Z,9.60
2022-12-24T15:16:13.769Z,9.60
2022-12-24T15:18:49.022Z,9.50
2022-12-24T15:21:20.718Z,9.40
2022-12-24T15:23:51.132Z,9.40
2022-12-24T15:26:27.715Z,9.50
2022-12-24T15:29:03.164Z,9.50
2022-12-24T15:31:31.739Z,9.50
2022-12-24T15:33:59.653Z,9.50
2022-12-24T15:36:32.217Z,9.60
2022-12-24T15:39:14.430Z,9.40
2022-12-24T15:42:04.361Z,9.40
2022-12-24T15:44:37.836Z,9.20
2022-12-24T15:47:07.825Z,9.60
2022-12-24T15:49:36.589Z,9.40
2022-12-24T15:52:14.777Z,9.30
2022-12-24T15:54:50.880Z,9.40
2022-12-24T15:57:31.653Z,9.40
2022-12-24T16:00:00.765Z,9.40
2022-12-24T16:02:38.530Z,9.20
2022-12-24T16:05:29.141Z,9.40
2022-12-24T16:08:14.069Z,9.30
2022-12-24T16:10:45.601Z,9.40
2022-12-24T16:13:15.060Z,9.00
2022-12-24T16:15:52.920Z,9.40
2022-12-24T16:18:27.964Z,9.20
2022-12-24T16:20:56.566Z,9.40
2022-12-24T16:23:51.671Z,9.40
2022-12-24T16:26:18.575Z,9.40
2022-12-24T16:28:45.497Z,9.30
2022-12-24T16:31:30.786Z,9.40
2022-12-24T16:33:59.846Z,9.30
2022-12-24T16:36:30.954Z,9.40
2022-12-24T16:39:17.299Z,9.30
2022-12-24T16:42:03.038Z,9.60
2022-12-24T16:44:29.887Z,9.00
2022-12-24T16:46:59.485Z,9.40
2022-12-24T16:49:27.183Z,9.20
2022-12-24T16:51:54.040Z,9.30
2022-12-24T16:54:20.885Z,9.00
2022-12-24T16:56:47.648Z,9.10
2022-12-24T16:59:19.858Z,9.50
2022-12-24T17:01:47.495Z,9.20
2022-12-24T17:04:15.013Z,9.40
2022-12-24T17:06:42.533Z,9.00
2022-12-24T17:09:11.423Z,9.30
2022-12-24T17:11:52.478Z,9.10
2022-12-24T17:14:20.890Z,9.40
2022-12-24T17:16:48.218Z,9.40
2022-12-24T17:19:15.119Z,9.30
2022-12-24T17:21:42.085Z,9.20
2022-12-24T17:24:09.087Z,9.20
2022-12-24T17:26:37.127Z,9.20
2022-12-24T17:29:05.235Z,9.40
2022-12-24T17:31:33.732Z,9.40
2022-12-24T17:34:15.917Z,9.40
2022-12-24T17:36:43.781Z,9.40
2022-12-24T17:39:10.556Z,9.40
2022-12-24T17:41:40.143Z,9.20
2022-12-24T17:44:08.992Z,9.50
2022-12-24T17:46:38.000Z,9.50
2022-12-24T17:49:04.847Z,9.20
2022-12-24T17:51:33.409Z,9.30
2022-12-24T17:54:01.411Z,9.00
2022-12-24T17:56:29.193Z,8.90
2022-12-24T17:58:56.428Z,8.90
2022-12-24T18:01:25.548Z,9.20
2022-12-24T18:03:53.454Z,9.40
2022-12-24T18:09:02.075Z,9.20
2022-12-24T18:11:32.940Z,9.10
2022-12-24T18:14:01.639Z,8.90
2022-12-24T18:16:34.654Z,8.90
2022-12-24T18:19:02.141Z,9.20
2022-12-24T18:21:32.460Z,9.30
2022-12-24T18:23:59.632Z,8.90
2022-12-24T18:26:28.790Z,9.30
2022-12-24T18:28:57.338Z,9.30
2022-12-24T18:31:26.721Z,9.00
2022-12-24T18:33:55.991Z,9.20
2022-12-24T18:36:23.154Z,9.00
2022-12-24T18:38:50.458Z,9.30
2022-12-24T18:41:23.681Z,9.30
2022-12-24T18:43:51.246Z,9.00
2022-12-24T18:46:26.914Z,9.30
2022-12-24T18:48:55.867Z,9.40
2022-12-24T18:51:24.858Z,9.40
2022-12-24T18:53:51.896Z,9.30
2022-12-24T18:56:24.311Z,9.10
2022-12-24T18:59:00.921Z,9.10
2022-12-24T19:01:31.172Z,9.00
2022-12-24T19:03:58.481Z,9.00
2022-12-24T19:06:28.206Z,9.00
2022-12-24T19:09:00.251Z,9.10
2022-12-24T19:11:29.958Z,9.40
2022-12-24T19:13:58.425Z,9.20
2022-12-24T19:16:27.457Z,8.90
2022-12-24T19:18:55.341Z,9.40
2022-12-24T19:21:22.258Z,9.40
2022-12-24T19:23:49.574Z,9.40
2022-12-24T19:26:18.228Z,9.10
2022-12-24T19:28:45.643Z,9.10
2022-12-24T19:31:15.845Z,9.20
2022-12-24T19:33:46.576Z,8.90
2022-12-24T19:36:20.016Z,9.10
2022-12-24T19:38:47.206Z,9.20
2022-12-24T19:41:16.708Z,9.00
2022-12-24T19:43:48.914Z,9.20
2022-12-24T19:46:18.554Z,8.90
2022-12-24T19:48:52.969Z,8.90
2022-12-24T19:51:20.648Z,9.30
2022-12-24T19:53:48.286Z,9.30
2022-12-24T19:56:20.688Z,9.40
2022-12-24T19:58:48.488Z,9.40
2022-12-24T20:01:18.613Z,9.30
2022-12-24T20:03:47.161Z,8.90
2022-12-24T20:06:15.666Z,9.30
2022-12-24T20:08:43.216Z,8.90
2022-12-24T20:11:13.856Z,8.90
2022-12-24T20:13:41.667Z,9.10
2022-12-24T20:16:11.283Z,8.90
2022-12-24T20:18:38.216Z,9.10
2022-12-24T20:21:10.605Z,9.00
2022-12-24T20:23:39.077Z,8.90
2022-12-24T20:26:09.393Z,8.90
2022-12-24T20:28:37.907Z,9.10
2022-12-24T20:31:16.785Z,8.90
2022-12-24T20:33:45.321Z,9.10
2022-12-24T20:36:14.468Z,9.00
2022-12-24T20:38:45.674Z,8.80
2022-12-24T20:41:14.159Z,8.80
2022-12-24T20:43:47.973Z,9.10
2022-12-24T20:46:17.471Z,8.80
2022-12-24T20:48:47.375Z,8.90
2022-12-24T20:51:24.335Z,8.80
2022-12-24T20:53:54.072Z,9.00
2022-12-24T20:56:21.449Z,8.60
2022-12-24T20:58:48.441Z,9.10
2022-12-24T21:01:26.817Z,9.00
2022-12-24T21:03:54.919Z,8.90
2022-12-24T21:06:23.164Z,9.10
2022-12-24T21:08:50.942Z,8.90
2022-12-24T21:11:37.560Z,8.80
2022-12-24T21:14:04.649Z,9.10
2022-12-24T21:16:33.888Z,8.80
2022-12-24T21:19:01.098Z,9.20
2022-12-24T21:21:28.499Z,8.90
2022-12-24T21:23:55.962Z,8.80
2022-12-24T21:26:23.848Z,8.80
2022-12-24T21:28:50.918Z,9.10
2022-12-24T21:31:18.324Z,8.80
2022-12-24T21:33:45.279Z,9.10
2022-12-24T21:36:14.009Z,8.80
2022-12-24T21:38:41.860Z,8.80
2022-12-24T21:41:15.829Z,8.70
2022-12-24T21:43:43.665Z,8.80
2022-12-24T21:46:17.615Z,8.90
2022-12-24T21:49:04.190Z,9.10
2022-12-24T21:51:31.363Z,8.80
2022-12-24T21:54:17.586Z,8.90
2022-12-24T21:57:03.238Z,8.80
2022-12-24T21:59:31.547Z,8.80
2022-12-24T22:01:58.789Z,8.50
2022-12-24T22:04:26.331Z,8.70
2022-12-24T22:07:11.729Z,9.10
2022-12-24T22:09:57.887Z,8.90
2022-12-24T22:12:29.082Z,8.50
2022-12-24T22:14:55.964Z,8.90
2022-12-24T22:17:25.691Z,9.00
2022-12-24T22:19:56.042Z,8.60
2022-12-24T22:22:23.862Z,9.00
2022-12-24T22:24:51.000Z,8.80
2022-12-24T22:27:18.070Z,8.50
2022-12-24T22:29:45.391Z,8.80
2022-12-24T22:32:15.353Z,8.80
2022-12-24T22:34:42.570Z,8.50
2022-12-24T22:37:09.388Z,8.40
2022-12-24T22:39:36.578Z,8.50
2022-12-24T22:42:03.374Z,8.50
2022-12-24T22:44:30.077Z,8.70
2022-12-24T22:46:57.096Z,9.00
2022-12-24T22:49:23.852Z,8.70
2022-12-24T22:51:50.671Z,8.80
2022-12-24T22:54:17.630Z,9.00
2022-12-24T22:56:44.446Z,8.60
2022-12-24T22:59:14.036Z,9.00
2022-12-24T23:01:45.220Z,8.90
2022-12-24T23:04:12.920Z,9.00
2022-12-24T23:06:40.652Z,8.80
2022-12-24T23:09:10.006Z,8.80
2022-12-24T23:11:36.942Z,8.80
2022-12-24T23:14:22.489Z,8.80
2022-12-24T23:16:49.675Z,9.00
2022-12-24T23:19:16.722Z,8.80
2022-12-24T23:21:44.980Z,9.00
2022-12-24T23:24:11.971Z,8.80
2022-12-24T23:26:38.825Z,9.00
2022-12-24T23:29:06.603Z,8.90
2022-12-24T23:31:34.783Z,8.90
2022-12-24T23:34:02.037Z,8.90
2022-12-24T23:36:29.298Z,8.80
2022-12-24T23:38:56.514Z,8.80
2022-12-24T23:41:23.421Z,9.00
2022-12-24T23:43:50.291Z,8.80
2022-12-24T23:46:18.652Z,9.00
2022-12-24T23:48:46.298Z,8.90
2022-12-24T23:51:19.877Z,8.80
2022-12-24T23:53:47.098Z,8.80
2022-12-24T23:56:14.121Z,8.80
2022-12-24T23:58:42.657Z,9.00
